createdAt,value
2023-05-11T00:00:09.415Z,1072.00
2023-05-11T00:01:09.406Z,1074.00
2023-05-11T00:02:09.462Z,1076.00
2023-05-11T00:03:09.686Z,1073.00
2023-05-11T00:04:09.477Z,1071.00
2023-05-11T00:05:09.449Z,1070.00
2023-05-11T00:06:09.469Z,1066.00
2023-05-11T00:07:09.481Z,1067.00
2023-05-11T00:08:09.498Z,1068.00
2023-05-11T00:09:09.514Z,1066.00
2023-05-11T00:10:09.520Z,1064.00
2023-05-11T00:11:09.522Z,1058.00
2023-05-11T00:12:09.543Z,1054.00
2023-05-11T00:13:09.541Z,1056.00
2023-05-11T00:14:09.562Z,1058.00
2023-05-11T00:15:09.582Z,1057.00
2023-05-11T00:16:09.617Z,1059.00
2023-05-11T00:17:09.612Z,1059.00
2023-05-11T00:18:09.629Z,1057.00
2023-05-11T00:19:09.628Z,1056.00
2023-05-11T00:20:09.631Z,1057.00
2023-05-11T00:21:09.643Z,1055.00
2023-05-11T00:22:09.702Z,1053.00
2023-05-11T00:23:09.658Z,1054.00
2023-05-11T00:24:09.666Z,1052.00
2023-05-11T00:25:09.678Z,1052.00
2023-05-11T00:26:09.676Z,1053.00
2023-05-11T00:27:09.696Z,1053.00
2023-05-11T00:28:09.708Z,1055.00
2023-05-11T00:29:09.712Z,1055.00
2023-05-11T00:30:09.715Z,1056.00
2023-05-11T00:31:09.760Z,1058.00
2023-05-11T00:32:09.722Z,1053.00
2023-05-11T00:33:09.749Z,1054.00
2023-05-11T00:34:09.743Z,1056.00
2023-05-11T00:35:09.754Z,1054.00
2023-05-11T00:36:09.765Z,1051.00
2023-05-11T00:37:09.760Z,1048.00
2023-05-11T00:38:09.757Z,1045.00
2023-05-11T00:39:09.782Z,1043.00
2023-05-11T00:40:09.769Z,1043.00
2023-05-11T00:41:09.782Z,1041.00
2023-05-11T00:42:09.779Z,1046.00
2023-05-11T00:43:09.802Z,1048.00
2023-05-11T00:44:09.799Z,1047.00
2023-05-11T00:45:09.810Z,1044.00
2023-05-11T00:46:09.819Z,1045.00
2023-05-11T00:47:09.953Z,1044.00
2023-05-11T00:48:09.842Z,1043.00
2023-05-11T00:49:09.851Z,1045.00
2023-05-11T00:50:09.853Z,1044.00
2023-05-11T00:51:09.867Z,1046.00
2023-05-11T00:52:09.873Z,1045.00
2023-05-11T00:53:09.867Z,1042.00
2023-05-11T00:54:09.878Z,1040.00
2023-05-11T00:55:09.888Z,1039.00
2023-05-11T00:56:09.904Z,1037.00
2023-05-11T00:57:09.901Z,1036.00
2023-05-11T00:58:09.905Z,1035.00
2023-05-11T00:59:09.913Z,1035.00
2023-05-11T01:00:09.920Z,1035.00
2023-05-11T01:01:09.986Z,1033.00
2023-05-11T01:02:09.934Z,1038.00
2023-05-11T01:03:09.960Z,1038.00
2023-05-11T01:04:09.943Z,1037.00
2023-05-11T01:05:09.938Z,1036.00
2023-05-11T01:06:09.951Z,1037.00
2023-05-11T01:07:09.940Z,1039.00
2023-05-11T01:08:09.945Z,1041.00
2023-05-11T01:09:09.965Z,1037.00
2023-05-11T01:10:09.982Z,1038.00
2023-05-11T01:11:10.047Z,1039.00
2023-05-11T01:12:09.975Z,1037.00
2023-05-11T01:13:09.975Z,1037.00
2023-05-11T01:14:09.991Z,1036.00
2023-05-11T01:15:09.990Z,1034.00
2023-05-11T01:16:10.033Z,1032.00
2023-05-11T01:17:09.999Z,1033.00
2023-05-11T01:18:10.032Z,1033.00
2023-05-11T01:19:10.178Z,1030.00
2023-05-11T01:20:10.025Z,1028.00
2023-05-11T01:21:10.041Z,1026.00
2023-05-11T01:22:10.044Z,1026.00
2023-05-11T01:23:10.059Z,1028.00
2023-05-11T01:24:10.088Z,1024.00
2023-05-11T01:25:10.069Z,1023.00
2023-05-11T01:26:10.089Z,1026.00
2023-05-11T01:27:10.089Z,1027.00
2023-05-11T01:28:10.090Z,1027.00
2023-05-11T01:29:10.095Z,1029.00
2023-05-11T01:30:10.109Z,1028.00
2023-05-11T01:31:10.129Z,1027.00
2023-05-11T01:32:10.174Z,1030.00
2023-05-11T01:33:10.182Z,1029.00
2023-05-11T01:34:10.160Z,1027.00
2023-05-11T01:35:10.161Z,1024.00
2023-05-11T01:36:10.191Z,1023.00
2023-05-11T01:37:10.189Z,1022.00
2023-05-11T01:38:10.192Z,1023.00
2023-05-11T01:39:10.199Z,1025.00
2023-05-11T01:40:10.217Z,1025.00
2023-05-11T01:41:10.245Z,1023.00
2023-05-11T01:42:10.252Z,1023.00
2023-05-11T01:43:10.271Z,1020.00
2023-05-11T01:44:10.299Z,1017.00
2023-05-11T01:45:10.318Z,1019.00
2023-05-11T01:46:10.420Z,1020.00
2023-05-11T01:47:10.357Z,1019.00
2023-05-11T01:48:10.394Z,1020.00
2023-05-11T01:49:10.400Z,1022.00
2023-05-11T01:50:10.419Z,1021.00
2023-05-11T01:51:10.435Z,1018.00
2023-05-11T01:52:10.458Z,1016.00
2023-05-11T01:53:10.472Z,1014.00
2023-05-11T01:54:10.509Z,1015.00
2023-05-11T01:55:10.555Z,1009.00
2023-05-11T01:56:10.565Z,1006.00
2023-05-11T01:57:10.575Z,1005.00
2023-05-11T01:58:10.595Z,1006.00
2023-05-11T01:59:10.608Z,1010.00
2023-05-11T02:00:10.656Z,1008.00
2023-05-11T02:01:10.656Z,1011.00
2023-05-11T02:02:10.691Z,1016.00
2023-05-11T02:03:10.760Z,1010.00
2023-05-11T02:04:10.697Z,1010.00
2023-05-11T02:05:10.750Z,1012.00
2023-05-11T02:06:10.760Z,1014.00
2023-05-11T02:07:10.784Z,1014.00
2023-05-11T02:08:10.803Z,1014.00
2023-05-11T02:09:10.824Z,1015.00
2023-05-11T02:10:10.862Z,1014.00
2023-05-11T02:11:10.876Z,1018.00
2023-05-11T02:12:10.878Z,1017.00
2023-05-11T02:13:10.907Z,1018.00
2023-05-11T02:14:10.924Z,1017.00
2023-05-11T02:15:10.959Z,1015.00
2023-05-11T02:16:11.090Z,1010.00
2023-05-11T02:17:10.990Z,1009.00
2023-05-11T02:18:11.007Z,1011.00
2023-05-11T02:19:11.049Z,1011.00
2023-05-11T02:20:11.063Z,1010.00
2023-05-11T02:21:11.088Z,1005.00
2023-05-11T02:22:11.124Z,1004.00
2023-05-11T02:23:11.146Z,1002.00
2023-05-11T02:24:11.163Z,1003.00
2023-05-11T02:25:11.184Z,1001.00
2023-05-11T02:26:11.210Z,999.00
2023-05-11T02:27:11.216Z,996.00
2023-05-11T02:28:11.236Z,997.00
2023-05-11T02:29:11.272Z,997.00
2023-05-11T02:30:11.272Z,996.00
2023-05-11T02:31:11.313Z,996.00
2023-05-11T02:32:11.315Z,995.00
2023-05-11T02:33:11.345Z,990.00
2023-05-11T02:34:11.363Z,993.00
2023-05-11T02:35:11.407Z,992.00
2023-05-11T02:36:11.406Z,991.00
2023-05-11T02:37:11.424Z,988.00
2023-05-11T02:38:11.445Z,986.00
2023-05-11T02:39:11.458Z,981.00
2023-05-11T02:40:11.483Z,981.00
2023-05-11T02:41:11.501Z,981.00
2023-05-11T02:42:11.526Z,983.00
2023-05-11T02:43:11.560Z,986.00
2023-05-11T02:44:11.560Z,989.00
2023-05-11T02:45:11.615Z,989.00
2023-05-11T02:46:11.650Z,990.00
2023-05-11T02:47:11.640Z,991.00
2023-05-11T02:48:11.836Z,997.00
2023-05-11T02:49:11.680Z,999.00
2023-05-11T02:50:11.709Z,1000.00
2023-05-11T02:51:11.723Z,1001.00
2023-05-11T02:52:11.732Z,999.00
2023-05-11T02:53:11.759Z,995.00
2023-05-11T02:54:11.797Z,995.00
2023-05-11T02:55:11.800Z,995.00
2023-05-11T02:56:11.824Z,995.00
2023-05-11T02:57:11.847Z,997.00
2023-05-11T02:58:11.884Z,1000.00
2023-05-11T02:59:11.898Z,998.00
2023-05-11T03:00:11.915Z,994.00
2023-05-11T03:01:12.006Z,992.00
2023-05-11T03:02:12.011Z,988.00
2023-05-11T03:03:12.059Z,989.00
2023-05-11T03:04:12.052Z,988.00
2023-05-11T03:05:12.125Z,988.00
2023-05-11T03:06:12.053Z,989.00
2023-05-11T03:07:12.134Z,985.00
2023-05-11T03:08:12.116Z,985.00
2023-05-11T03:09:12.142Z,988.00
2023-05-11T03:10:12.163Z,989.00
2023-05-11T03:11:12.185Z,985.00
2023-05-11T03:12:12.217Z,988.00
2023-05-11T03:13:12.242Z,988.00
2023-05-11T03:14:12.264Z,987.00
2023-05-11T03:15:12.284Z,987.00
2023-05-11T03:16:12.366Z,986.00
2023-05-11T03:17:12.325Z,985.00
2023-05-11T03:18:12.351Z,982.00
2023-05-11T03:19:12.353Z,981.00
2023-05-11T03:20:12.385Z,979.00
2023-05-11T03:21:12.394Z,981.00
2023-05-11T03:22:12.429Z,983.00
2023-05-11T03:23:12.461Z,983.00
2023-05-11T03:24:12.475Z,984.00
2023-05-11T03:25:12.510Z,983.00
2023-05-11T03:26:12.548Z,982.00
2023-05-11T03:27:12.569Z,982.00
2023-05-11T03:28:12.605Z,982.00
2023-05-11T03:29:12.602Z,984.00
2023-05-11T03:30:12.625Z,983.00
2023-05-11T03:31:12.656Z,984.00
2023-05-11T03:32:12.752Z,984.00
2023-05-11T03:33:12.791Z,982.00
2023-05-11T03:34:12.732Z,982.00
2023-05-11T03:35:12.764Z,983.00
2023-05-11T03:36:12.802Z,984.00
2023-05-11T03:37:12.829Z,984.00
2023-05-11T03:38:12.839Z,983.00
2023-05-11T03:39:12.868Z,984.00
2023-05-11T03:40:12.896Z,982.00
2023-05-11T03:41:12.916Z,983.00
2023-05-11T03:42:12.952Z,981.00
2023-05-11T03:43:12.959Z,983.00
2023-05-11T03:44:13.014Z,984.00
2023-05-11T03:45:13.024Z,983.00
2023-05-11T03:46:13.043Z,984.00
2023-05-11T03:47:13.060Z,982.00
2023-05-11T03:48:13.091Z,985.00
2023-05-11T03:49:13.945Z,986.00
2023-05-11T03:50:13.145Z,983.00
2023-05-11T03:51:13.179Z,982.00
2023-05-11T03:52:13.214Z,984.00
2023-05-11T03:53:13.222Z,985.00
2023-05-11T03:54:13.257Z,983.00
2023-05-11T03:55:13.286Z,982.00
2023-05-11T03:56:13.308Z,982.00
2023-05-11T03:57:13.342Z,983.00
2023-05-11T03:58:13.370Z,980.00
2023-05-11T03:59:13.380Z,983.00
2023-05-11T04:00:13.419Z,982.00
2023-05-11T04:01:13.444Z,979.00
2023-05-11T04:02:13.552Z,974.00
2023-05-11T04:03:13.605Z,976.00
2023-05-11T04:04:13.572Z,976.00
2023-05-11T04:05:13.546Z,974.00
2023-05-11T04:06:13.578Z,976.00
2023-05-11T04:07:13.615Z,976.00
2023-05-11T04:08:13.630Z,974.00
2023-05-11T04:09:13.658Z,974.00
2023-05-11T04:10:13.755Z,976.00
2023-05-11T04:11:13.697Z,981.00
2023-05-11T04:12:13.725Z,982.00
2023-05-11T04:13:13.747Z,981.00
2023-05-11T04:14:13.796Z,976.00
2023-05-11T04:15:13.826Z,972.00
2023-05-11T04:16:13.881Z,971.00
2023-05-11T04:17:13.874Z,972.00
2023-05-11T04:18:13.892Z,970.00
2023-05-11T04:19:13.920Z,967.00
2023-05-11T04:20:13.967Z,968.00
2023-05-11T04:21:13.966Z,966.00
2023-05-11T04:22:14.003Z,965.00
2023-05-11T04:23:14.028Z,967.00
2023-05-11T04:24:14.062Z,967.00
2023-05-11T04:25:14.093Z,964.00
2023-05-11T04:26:14.128Z,962.00
2023-05-11T04:27:14.160Z,962.00
2023-05-11T04:28:14.191Z,961.00
2023-05-11T04:29:14.238Z,957.00
2023-05-11T04:30:14.261Z,955.00
2023-05-11T04:31:14.306Z,956.00
2023-05-11T04:32:14.326Z,956.00
2023-05-11T04:33:14.362Z,954.00
2023-05-11T04:34:14.441Z,954.00
2023-05-11T04:35:14.418Z,954.00
2023-05-11T04:36:14.449Z,957.00
2023-05-11T04:37:14.474Z,957.00
2023-05-11T04:38:14.511Z,960.00
2023-05-11T04:39:14.536Z,959.00
2023-05-11T04:40:14.571Z,957.00
2023-05-11T04:41:14.591Z,960.00
2023-05-11T04:42:14.645Z,962.00
2023-05-11T04:43:14.657Z,960.00
2023-05-11T04:44:14.686Z,960.00
2023-05-11T04:45:14.713Z,958.00
2023-05-11T04:46:14.784Z,959.00
2023-05-11T04:47:14.783Z,957.00
2023-05-11T04:48:14.797Z,958.00
2023-05-11T04:49:14.839Z,956.00
2023-05-11T04:50:14.865Z,955.00
2023-05-11T04:51:14.892Z,954.00
2023-05-11T04:52:14.919Z,954.00
2023-05-11T04:53:14.946Z,953.00
2023-05-11T04:54:14.971Z,950.00
2023-05-11T04:55:15.016Z,955.00
2023-05-11T04:56:15.046Z,957.00
2023-05-11T04:57:15.065Z,954.00
2023-05-11T04:58:15.100Z,954.00
2023-05-11T04:59:15.125Z,955.00
2023-05-11T05:00:15.195Z,955.00
2023-05-11T05:01:15.262Z,952.00
2023-05-11T05:02:15.201Z,951.00
2023-05-11T05:03:15.283Z,952.00
2023-05-11T05:04:15.288Z,951.00
2023-05-11T05:05:15.285Z,953.00
2023-05-11T05:06:15.308Z,953.00
2023-05-11T05:07:15.330Z,957.00
2023-05-11T05:08:15.354Z,957.00
2023-05-11T05:09:15.386Z,957.00
2023-05-11T05:10:15.465Z,954.00
2023-05-11T05:11:15.445Z,953.00
2023-05-11T05:12:15.476Z,952.00
2023-05-11T05:13:15.513Z,954.00
2023-05-11T05:14:15.546Z,954.00
2023-05-11T05:15:15.603Z,953.00
2023-05-11T05:16:15.641Z,954.00
2023-05-11T05:17:15.648Z,954.00
2023-05-11T05:18:15.848Z,956.00
2023-05-11T05:19:15.717Z,956.00
2023-05-11T05:20:15.844Z,955.00
2023-05-11T05:21:15.791Z,956.00
2023-05-11T05:22:15.818Z,957.00
2023-05-11T05:23:15.855Z,960.00
2023-05-11T05:24:15.892Z,959.00
2023-05-11T05:25:15.938Z,959.00
2023-05-11T05:26:15.958Z,957.00
2023-05-11T05:27:15.967Z,958.00
2023-05-11T05:28:15.953Z,958.00
2023-05-11T05:29:15.972Z,959.00
2023-05-11T05:30:16.268Z,961.00
2023-05-11T05:31:16.019Z,1008.00
2023-05-11T05:32:16.019Z,1037.00
2023-05-11T05:33:16.018Z,1039.00
2023-05-11T05:34:16.622Z,1037.00
2023-05-11T05:35:16.030Z,1034.00
2023-05-11T05:36:16.044Z,1037.00
2023-05-11T05:37:16.055Z,1038.00
2023-05-11T05:38:16.060Z,1037.00
2023-05-11T05:39:16.071Z,1032.00
2023-05-11T05:40:17.184Z,1025.00
2023-05-11T05:41:16.101Z,1022.00
2023-05-11T05:42:16.108Z,1014.00
2023-05-11T05:43:16.113Z,1012.00
2023-05-11T05:44:16.111Z,1009.00
2023-05-11T05:45:16.129Z,1009.00
2023-05-11T05:46:16.152Z,1007.00
2023-05-11T05:47:16.139Z,1005.00
2023-05-11T05:48:16.146Z,1005.00
2023-05-11T05:49:16.153Z,1007.00
2023-05-11T05:50:16.366Z,1005.00
2023-05-11T05:51:16.173Z,1002.00
2023-05-11T05:52:16.186Z,1005.00
2023-05-11T05:53:16.192Z,1004.00
2023-05-11T05:54:16.202Z,1001.00
2023-05-11T05:55:16.222Z,1002.00
2023-05-11T05:56:16.252Z,1006.00
2023-05-11T05:57:16.339Z,1007.00
2023-05-11T05:58:16.311Z,1006.00
2023-05-11T05:59:16.350Z,1007.00
2023-05-11T06:00:16.618Z,1005.00
2023-05-11T06:01:16.416Z,1005.00
2023-05-11T06:02:16.491Z,1002.00
2023-05-11T06:03:16.581Z,1002.00
2023-05-11T06:04:16.586Z,1003.00
2023-05-11T06:05:16.564Z,1002.00
2023-05-11T06:06:16.595Z,1002.00
2023-05-11T06:07:16.623Z,997.00
2023-05-11T06:08:16.657Z,995.00
2023-05-11T06:09:16.690Z,995.00
2023-05-11T06:10:16.974Z,994.00
2023-05-11T06:11:16.802Z,995.00
2023-05-11T06:12:16.801Z,996.00
2023-05-11T06:13:16.831Z,995.00
2023-05-11T06:14:16.861Z,998.00
2023-05-11T06:15:16.898Z,997.00
2023-05-11T06:16:16.960Z,998.00
2023-05-11T06:17:16.962Z,997.00
2023-05-11T06:18:16.994Z,998.00
2023-05-11T06:19:17.017Z,997.00
2023-05-11T06:20:17.304Z,997.00
2023-05-11T06:21:17.120Z,998.00
2023-05-11T06:22:17.107Z,996.00
2023-05-11T06:23:17.168Z,1023.00
2023-05-11T06:24:17.165Z,1033.00
2023-05-11T06:25:17.196Z,1051.00
2023-05-11T06:26:17.211Z,1103.00
2023-05-11T06:27:18.353Z,1126.00
2023-05-11T06:28:17.273Z,1181.00
2023-05-11T06:29:17.264Z,1198.00
2023-05-11T06:30:17.607Z,1037.00
2023-05-11T06:31:17.359Z,873.00
2023-05-11T06:32:17.351Z,842.00
2023-05-11T06:33:18.150Z,858.00
2023-05-11T06:34:17.425Z,850.00
2023-05-11T06:35:17.485Z,832.00
2023-05-11T06:36:17.558Z,839.00
2023-05-11T06:37:17.623Z,844.00
2023-05-11T06:38:17.699Z,861.00
2023-05-11T06:39:17.743Z,942.00
2023-05-11T06:40:18.012Z,1021.00
2023-05-11T06:41:17.868Z,1079.00
2023-05-11T06:42:17.905Z,1096.00
2023-05-11T06:43:17.942Z,1110.00
2023-05-11T06:44:17.967Z,1119.00
2023-05-11T06:45:18.020Z,1134.00
2023-05-11T06:46:18.093Z,1167.00
2023-05-11T06:47:18.063Z,1185.00
2023-05-11T06:48:18.069Z,1197.00
2023-05-11T06:49:18.092Z,1227.00
2023-05-11T06:50:21.137Z,1248.00
2023-05-11T06:51:18.109Z,1267.00
2023-05-11T06:52:18.097Z,1310.00
2023-05-11T06:53:18.155Z,1325.00
2023-05-11T06:54:18.111Z,1345.00
2023-05-11T06:55:18.108Z,1371.00
2023-05-11T06:56:18.139Z,1400.00
2023-05-11T06:57:18.116Z,1420.00
2023-05-11T06:58:18.118Z,1433.00
2023-05-11T06:59:18.125Z,1451.00
2023-05-11T07:00:18.306Z,1475.00
2023-05-11T07:01:18.200Z,1498.00
2023-05-11T07:02:18.131Z,1535.00
2023-05-11T07:03:18.189Z,1548.00
2023-05-11T07:04:18.174Z,1575.00
2023-05-11T07:05:18.151Z,1595.00
2023-05-11T07:06:18.170Z,1612.00
2023-05-11T07:07:18.150Z,1635.00
2023-05-11T07:08:18.146Z,1655.00
2023-05-11T07:09:18.157Z,1678.00
2023-05-11T07:10:18.323Z,1703.00
2023-05-11T07:11:18.188Z,1732.00
2023-05-11T07:12:18.175Z,1761.00
2023-05-11T07:13:18.177Z,1784.00
2023-05-11T07:14:18.187Z,1804.00
2023-05-11T07:15:18.185Z,1819.00
2023-05-11T07:16:18.229Z,1866.00
2023-05-11T07:17:19.185Z,1882.00
2023-05-11T07:18:18.210Z,1896.00
2023-05-11T07:19:18.203Z,1923.00
2023-05-11T07:20:18.453Z,1920.00
2023-05-11T07:21:18.211Z,1761.00
2023-05-11T07:22:19.586Z,1103.00
2023-05-11T07:23:19.263Z,954.00
2023-05-11T07:24:18.313Z,911.00
2023-05-11T07:25:18.228Z,888.00
2023-05-11T07:26:18.269Z,894.00
2023-05-11T07:27:19.169Z,880.00
2023-05-11T07:28:18.297Z,848.00
2023-05-11T07:29:18.325Z,790.00
2023-05-11T07:30:18.945Z,778.00
2023-05-11T07:31:18.380Z,771.00
2023-05-11T07:32:18.387Z,822.00
2023-05-11T07:33:18.414Z,855.00
2023-05-11T07:34:18.453Z,893.00
2023-05-11T07:35:18.500Z,1040.00
2023-05-11T07:36:18.537Z,1061.00
2023-05-11T07:37:18.614Z,1102.00
2023-05-11T07:38:18.691Z,1143.00
2023-05-11T07:39:18.750Z,1168.00
2023-05-11T07:40:18.942Z,1196.00
2023-05-11T07:41:18.843Z,1212.00
2023-05-11T07:42:18.877Z,1241.00
2023-05-11T07:43:18.918Z,1269.00
2023-05-11T07:44:18.926Z,1313.00
2023-05-11T07:45:18.961Z,1317.00
2023-05-11T07:46:18.970Z,1328.00
2023-05-11T07:47:19.005Z,1342.00
2023-05-11T07:48:19.029Z,1349.00
2023-05-11T07:49:27.991Z,1371.00
2023-05-11T07:50:21.674Z,1397.00
2023-05-11T07:51:19.073Z,1426.00
2023-05-11T07:52:19.087Z,1440.00
2023-05-11T07:53:19.092Z,1456.00
2023-05-11T07:54:21.780Z,1513.00
2023-05-11T07:55:19.263Z,1519.00
2023-05-11T07:56:19.111Z,1525.00
2023-05-11T07:57:19.104Z,1585.00
2023-05-11T07:58:19.108Z,1595.00
2023-05-11T07:59:19.107Z,1644.00
2023-05-11T08:00:19.364Z,1653.00
2023-05-11T08:01:19.108Z,1660.00
2023-05-11T08:02:19.237Z,1678.00
2023-05-11T08:03:19.128Z,1709.00
2023-05-11T08:04:19.112Z,1736.00
2023-05-11T08:05:19.388Z,1758.00
2023-05-11T08:06:19.228Z,1774.00
2023-05-11T08:07:19.110Z,1801.00
2023-05-11T08:08:19.126Z,1815.00
2023-05-11T08:09:19.097Z,1826.00
2023-05-11T08:10:19.116Z,1865.00
2023-05-11T08:11:19.112Z,1893.00
2023-05-11T08:12:19.112Z,1901.00
2023-05-11T08:13:19.107Z,1910.00
2023-05-11T08:14:19.098Z,1920.00
2023-05-11T08:15:19.231Z,1935.00
2023-05-11T08:16:19.125Z,1691.00
2023-05-11T08:17:19.094Z,1430.00
2023-05-11T08:18:19.100Z,1260.00
2023-05-11T08:19:19.098Z,1128.00
2023-05-11T08:20:19.109Z,1061.00
2023-05-11T08:21:19.097Z,1049.00
2023-05-11T08:22:19.117Z,1025.00
2023-05-11T08:23:19.153Z,937.00
2023-05-11T08:24:19.153Z,921.00
2023-05-11T08:25:19.298Z,918.00
2023-05-11T08:26:19.176Z,917.00
2023-05-11T08:27:19.181Z,913.00
2023-05-11T08:28:19.233Z,969.00
2023-05-11T08:29:19.212Z,964.00
2023-05-11T08:30:19.226Z,976.00
2023-05-11T08:31:19.256Z,1046.00
2023-05-11T08:32:19.276Z,1070.00
2023-05-11T08:33:35.819Z,1098.00
2023-05-11T08:34:21.340Z,1138.00
2023-05-11T08:35:19.536Z,1148.00
2023-05-11T08:36:19.292Z,1174.00
2023-05-11T08:37:19.308Z,1228.00
2023-05-11T08:38:19.317Z,1228.00
2023-05-11T08:39:38.552Z,1248.00
2023-05-11T08:40:20.345Z,1273.00
2023-05-11T08:41:19.358Z,1256.00
2023-05-11T08:42:19.366Z,1245.00
2023-05-11T08:43:19.417Z,1251.00
2023-05-11T08:44:19.385Z,1237.00
2023-05-11T08:45:19.675Z,1196.00
2023-05-11T08:46:19.522Z,1200.00
2023-05-11T08:47:23.160Z,1191.00
2023-05-11T08:48:19.468Z,1193.00
2023-05-11T08:49:19.429Z,1189.00
2023-05-11T08:50:19.437Z,1183.00
2023-05-11T08:51:19.457Z,1183.00
2023-05-11T08:52:19.477Z,1179.00
2023-05-11T08:53:19.465Z,1171.00
2023-05-11T08:54:19.472Z,1155.00
2023-05-11T08:55:19.758Z,1164.00
2023-05-11T08:56:19.508Z,1164.00
2023-05-11T08:57:19.513Z,1168.00
2023-05-11T08:58:19.574Z,1166.00
2023-05-11T08:59:19.504Z,1154.00
2023-05-11T09:00:19.519Z,1143.00
2023-05-11T09:01:19.547Z,1135.00
2023-05-11T09:02:19.620Z,1117.00
2023-05-11T09:03:20.217Z,1109.00
2023-05-11T09:04:19.536Z,1132.00
2023-05-11T09:05:20.460Z,1132.00
2023-05-11T09:06:19.550Z,1170.00
2023-05-11T09:07:19.572Z,1143.00
2023-05-11T09:08:19.583Z,1132.00
2023-05-11T09:09:19.580Z,1133.00
2023-05-11T09:10:19.672Z,1109.00
2023-05-11T09:11:19.599Z,1093.00
2023-05-11T09:12:19.613Z,1099.00
2023-05-11T09:13:19.675Z,1166.00
2023-05-11T09:14:19.745Z,1163.00
2023-05-11T09:15:20.891Z,1154.00
2023-05-11T09:16:36.369Z,1085.00
2023-05-11T09:17:21.107Z,1071.00
2023-05-11T09:18:19.953Z,1074.00
2023-05-11T09:19:20.639Z,1012.00
2023-05-11T09:20:20.303Z,1018.00
2023-05-11T09:21:19.985Z,1095.00
2023-05-11T09:22:20.745Z,1081.00
2023-05-11T09:23:19.985Z,1016.00
2023-05-11T09:24:20.837Z,1033.00
2023-05-11T09:25:20.234Z,1053.00
2023-05-11T09:26:20.733Z,1065.00
2023-05-11T09:27:21.504Z,1098.00
2023-05-11T09:28:25.426Z,1114.00
2023-05-11T09:29:21.031Z,1038.00
2023-05-11T09:30:23.515Z,948.00
2023-05-11T09:31:20.193Z,911.00
2023-05-11T09:32:20.076Z,954.00
2023-05-11T09:33:20.735Z,958.00
2023-05-11T09:34:20.333Z,960.00
2023-05-11T09:35:20.476Z,964.00
2023-05-11T09:36:20.325Z,977.00
2023-05-11T09:37:20.346Z,991.00
2023-05-11T09:38:20.356Z,1040.00
2023-05-11T09:40:27.220Z,1035.00
2023-05-11T09:41:22.241Z,1046.00
2023-05-11T09:42:20.410Z,1065.00
2023-05-11T09:43:20.420Z,1072.00
2023-05-11T09:44:27.962Z,1091.00
2023-05-11T09:45:20.457Z,1092.00
2023-05-11T09:46:20.518Z,1091.00
2023-05-11T09:47:20.500Z,1096.00
2023-05-11T09:48:20.525Z,1098.00
2023-05-11T09:49:20.514Z,1099.00
2023-05-11T09:50:26.259Z,1137.00
2023-05-11T09:51:21.546Z,1139.00
2023-05-11T09:52:20.563Z,1139.00
2023-05-11T09:53:20.580Z,1140.00
2023-05-11T09:54:20.668Z,1149.00
2023-05-11T09:55:20.801Z,1163.00
2023-05-11T09:56:20.628Z,1171.00
2023-05-11T09:57:20.631Z,1177.00
2023-05-11T09:58:20.643Z,1181.00
2023-05-11T09:59:20.646Z,1183.00
2023-05-11T10:00:20.666Z,1189.00
2023-05-11T10:01:20.707Z,1197.00
2023-05-11T10:02:20.751Z,1199.00
2023-05-11T10:03:20.982Z,1216.00
2023-05-11T10:04:23.550Z,1228.00
2023-05-11T10:05:20.934Z,1234.00
2023-05-11T10:06:20.860Z,1233.00
2023-05-11T10:07:20.878Z,1221.00
2023-05-11T10:08:20.895Z,1224.00
2023-05-11T10:09:20.894Z,1236.00
2023-05-11T10:10:20.900Z,1237.00
2023-05-11T10:11:20.927Z,1237.00
2023-05-11T10:12:20.923Z,1237.00
2023-05-11T10:13:20.921Z,1235.00
2023-05-11T10:14:20.928Z,1243.00
2023-05-11T10:15:21.047Z,1321.00
2023-05-11T10:16:20.978Z,1381.00
2023-05-11T10:17:20.956Z,1391.00
2023-05-11T10:18:21.074Z,1402.00
2023-05-11T10:19:20.970Z,1450.00
2023-05-11T10:20:21.236Z,1486.00
2023-05-11T10:21:20.986Z,1521.00
2023-05-11T10:22:21.038Z,1546.00
2023-05-11T10:23:21.028Z,1591.00
2023-05-11T10:24:21.105Z,1606.00
2023-05-11T10:25:21.018Z,1623.00
2023-05-11T10:26:21.030Z,1633.00
2023-05-11T10:27:21.034Z,1657.00
2023-05-11T10:28:21.037Z,1714.00
2023-05-11T10:29:21.038Z,1734.00
2023-05-11T10:30:21.310Z,1751.00
2023-05-11T10:31:21.082Z,1774.00
2023-05-11T10:32:21.161Z,1799.00
2023-05-11T10:33:21.057Z,1842.00
2023-05-11T10:34:21.063Z,1854.00
2023-05-11T10:35:21.105Z,1864.00
2023-05-11T10:36:21.102Z,1911.00
2023-05-11T10:37:21.232Z,1935.00
2023-05-11T10:38:21.106Z,1955.00
2023-05-11T10:39:21.117Z,1979.00
2023-05-11T10:40:21.234Z,1994.00
2023-05-11T10:41:21.131Z,2014.00
2023-05-11T10:42:21.136Z,2057.00
2023-05-11T10:43:21.139Z,2075.00
2023-05-11T10:44:21.151Z,2095.00
2023-05-11T10:45:21.161Z,2114.00
2023-05-11T10:46:21.247Z,2131.00
2023-05-11T10:47:21.175Z,2190.00
2023-05-11T10:48:21.165Z,2200.00
2023-05-11T10:49:21.165Z,2212.00
2023-05-11T10:50:21.372Z,2232.00
2023-05-11T10:51:21.169Z,2253.00
2023-05-11T10:52:21.169Z,2267.00
2023-05-11T10:53:21.185Z,2287.00
2023-05-11T10:54:21.169Z,2328.00
2023-05-11T10:55:21.185Z,2350.00
2023-05-11T10:56:21.206Z,2362.00
2023-05-11T10:57:21.196Z,2387.00
2023-05-11T10:58:21.199Z,2434.00
2023-05-11T10:59:21.329Z,2457.00
2023-05-11T11:00:21.644Z,2468.00
2023-05-11T11:01:21.259Z,2495.00
2023-05-11T11:02:21.207Z,2509.00
2023-05-11T11:03:21.199Z,2521.00
2023-05-11T11:04:21.216Z,2545.00
2023-05-11T11:05:21.502Z,2580.00
2023-05-11T11:06:21.255Z,2592.00
2023-05-11T11:07:21.298Z,2600.00
2023-05-11T11:08:21.315Z,2595.00
2023-05-11T11:09:21.334Z,2587.00
2023-05-11T11:10:21.341Z,2578.00
2023-05-11T11:11:21.347Z,2561.00
2023-05-11T11:12:21.379Z,2550.00
2023-05-11T11:13:21.372Z,2544.00
2023-05-11T11:14:21.392Z,2546.00
2023-05-11T11:15:21.404Z,2545.00
2023-05-11T11:16:21.427Z,2545.00
2023-05-11T11:17:21.530Z,2543.00
2023-05-11T11:18:21.503Z,2544.00
2023-05-11T11:19:21.485Z,2541.00
2023-05-11T11:20:21.499Z,2539.00
2023-05-11T11:21:21.513Z,2529.00
2023-05-11T11:22:21.518Z,2522.00
2023-05-11T11:23:21.519Z,2518.00
2023-05-11T11:24:21.520Z,2516.00
2023-05-11T11:25:21.532Z,2515.00
2023-05-11T11:26:21.545Z,2509.00
2023-05-11T11:27:21.568Z,2507.00
2023-05-11T11:28:21.565Z,2507.00
2023-05-11T11:29:21.566Z,2506.00
2023-05-11T11:30:21.592Z,2503.00
2023-05-11T11:31:21.625Z,2499.00
2023-05-11T11:32:21.641Z,2495.00
2023-05-11T11:33:21.595Z,2489.00
2023-05-11T11:34:21.608Z,2486.00
2023-05-11T11:35:21.615Z,2484.00
2023-05-11T11:36:21.625Z,2480.00
2023-05-11T11:37:21.639Z,2482.00
2023-05-11T11:38:21.639Z,2482.00
2023-05-11T11:39:21.647Z,2483.00
2023-05-11T11:40:21.647Z,2479.00
2023-05-11T11:41:21.649Z,2480.00
2023-05-11T11:42:21.667Z,2481.00
2023-05-11T11:43:21.709Z,2475.00
2023-05-11T11:44:21.652Z,2477.00
2023-05-11T11:45:21.668Z,2476.00
2023-05-11T11:46:21.732Z,2476.00
2023-05-11T11:47:21.718Z,2475.00
2023-05-11T11:48:21.763Z,2475.00
2023-05-11T11:49:21.805Z,2472.00
2023-05-11T11:50:21.845Z,2469.00
2023-05-11T11:51:21.878Z,2466.00
2023-05-11T11:52:21.955Z,2465.00
2023-05-11T11:53:21.980Z,2467.00
2023-05-11T11:54:22.022Z,2468.00
2023-05-11T11:55:22.070Z,2467.00
2023-05-11T11:56:22.104Z,2463.00
2023-05-11T11:57:22.171Z,2461.00
2023-05-11T11:58:22.247Z,2459.00
2023-05-11T11:59:22.261Z,2454.00
2023-05-11T12:00:22.311Z,2451.00
2023-05-11T12:01:22.362Z,2444.00
2023-05-11T12:02:22.404Z,2405.00
2023-05-11T12:03:22.507Z,2409.00
2023-05-11T12:04:22.578Z,2378.00
2023-05-11T12:05:23.021Z,2348.00
2023-05-11T12:06:24.399Z,2341.00
2023-05-11T12:07:22.668Z,2348.00
2023-05-11T12:08:22.600Z,2351.00
2023-05-11T12:09:22.708Z,2356.00
2023-05-11T12:10:22.631Z,2354.00
2023-05-11T12:11:22.598Z,2347.00
2023-05-11T12:12:22.638Z,2340.00
2023-05-11T12:13:22.613Z,2335.00